sensor_id;sensor_type;location;lat;lon;timestamp;P1;durP1;ratioP1;P2;durP2;ratioP2
42384;SDS011;28042;43.986;22.860;2023-11-18T00:00:07;2.28;;;1.67;;
42384;SDS011;28042;43.986;22.860;2023-11-18T00:02:37;1.75;;;1.10;;
42384;SDS011;28042;43.986;22.860;2023-11-18T00:05:03;1.30;;;1.15;;
42384;SDS011;28042;43.986;22.860;2023-11-18T00:07:29;2.40;;;1.40;;
42384;SDS011;28042;43.986;22.860;2023-11-18T00:09:57;1.63;;;1.27;;
42384;SDS011;28042;43.986;22.860;2023-11-18T00:12:22;1.83;;;1.20;;
42384;SDS011;28042;43.986;22.860;2023-11-18T00:14:49;5.93;;;1.40;;
42384;SDS011;28042;43.986;22.860;2023-11-18T00:17:15;2.20;;;1.40;;
42384;SDS011;28042;43.986;22.860;2023-11-18T00:19:41;2.33;;;1.45;;
42384;SDS011;28042;43.986;22.860;2023-11-18T00:22:07;2.00;;;1.40;;
42384;SDS011;28042;43.986;22.860;2023-11-18T00:24:33;2.35;;;1.50;;
42384;SDS011;28042;43.986;22.860;2023-11-18T00:27:00;2.88;;;1.60;;
42384;SDS011;28042;43.986;22.860;2023-11-18T00:29:31;5.07;;;1.90;;
42384;SDS011;28042;43.986;22.860;2023-11-18T00:31:58;1.85;;;1.20;;
42384;SDS011;28042;43.986;22.860;2023-11-18T00:34:23;2.00;;;1.20;;
42384;SDS011;28042;43.986;22.860;2023-11-18T00:36:49;1.75;;;1.30;;
42384;SDS011;28042;43.986;22.860;2023-11-18T00:39:14;1.35;;;0.90;;
42384;SDS011;28042;43.986;22.860;2023-11-18T00:41:40;1.58;;;1.10;;
42384;SDS011;28042;43.986;22.860;2023-11-18T00:44:05;1.65;;;1.10;;
42384;SDS011;28042;43.986;22.860;2023-11-18T00:46:32;1.45;;;0.88;;
42384;SDS011;28042;43.986;22.860;2023-11-18T00:49:01;1.42;;;1.15;;
42384;SDS011;28042;43.986;22.860;2023-11-18T00:51:26;1.80;;;1.45;;
42384;SDS011;28042;43.986;22.860;2023-11-18T00:53:52;2.00;;;1.20;;
42384;SDS011;28042;43.986;22.860;2023-11-18T00:56:19;1.05;;;0.93;;
42384;SDS011;28042;43.986;22.860;2023-11-18T00:58:47;1.10;;;1.05;;
42384;SDS011;28042;43.986;22.860;2023-11-18T01:01:12;1.63;;;1.10;;
42384;SDS011;28042;43.986;22.860;2023-11-18T01:03:38;1.67;;;1.10;;
42384;SDS011;28042;43.986;22.860;2023-11-18T01:06:04;1.00;;;0.90;;
42384;SDS011;28042;43.986;22.860;2023-11-18T01:08:31;1.73;;;0.90;;
42384;SDS011;28042;43.986;22.860;2023-11-18T01:10:57;1.25;;;0.90;;
42384;SDS011;28042;43.986;22.860;2023-11-18T01:13:22;1.20;;;0.90;;
42384;SDS011;28042;43.986;22.860;2023-11-18T01:15:48;1.33;;;0.70;;
42384;SDS011;28042;43.986;22.860;2023-11-18T01:18:14;0.70;;;0.70;;
42384;SDS011;28042;43.986;22.860;2023-11-18T01:20:40;0.98;;;0.60;;
42384;SDS011;28042;43.986;22.860;2023-11-18T01:23:05;1.23;;;0.70;;
42384;SDS011;28042;43.986;22.860;2023-11-18T01:25:31;1.10;;;0.77;;
42384;SDS011;28042;43.986;22.860;2023-11-18T01:27:56;0.30;;;0.30;;
42384;SDS011;28042;43.986;22.860;2023-11-18T01:30:22;0.95;;;0.77;;
42384;SDS011;28042;43.986;22.860;2023-11-18T01:32:49;0.63;;;0.63;;
42384;SDS011;28042;43.986;22.860;2023-11-18T01:35:14;0.63;;;0.57;;
42384;SDS011;28042;43.986;22.860;2023-11-18T01:37:40;0.60;;;0.60;;
42384;SDS011;28042;43.986;22.860;2023-11-18T01:40:06;1.08;;;0.70;;
42384;SDS011;28042;43.986;22.860;2023-11-18T01:42:38;1.13;;;0.90;;
42384;SDS011;28042;43.986;22.860;2023-11-18T01:45:03;0.85;;;0.60;;
42384;SDS011;28042;43.986;22.860;2023-11-18T01:47:31;1.15;;;0.80;;
42384;SDS011;28042;43.986;22.860;2023-11-18T01:49:59;3.38;;;0.85;;
42384;SDS011;28042;43.986;22.860;2023-11-18T01:52:28;0.77;;;0.70;;
42384;SDS011;28042;43.986;22.860;2023-11-18T01:54:55;0.70;;;0.60;;
42384;SDS011;28042;43.986;22.860;2023-11-18T01:57:21;0.57;;;0.57;;
42384;SDS011;28042;43.986;22.860;2023-11-18T01:59:46;1.02;;;0.80;;
42384;SDS011;28042;43.986;22.860;2023-11-18T02:02:12;2.53;;;0.60;;
42384;SDS011;28042;43.986;22.860;2023-11-18T02:04:38;0.68;;;0.63;;
42384;SDS011;28042;43.986;22.860;2023-11-18T02:07:04;0.57;;;0.55;;
42384;SDS011;28042;43.986;22.860;2023-11-18T02:09:34;0.85;;;0.65;;
42384;SDS011;28042;43.986;22.860;2023-11-18T02:14:29;0.50;;;0.50;;
42384;SDS011;28042;43.986;22.860;2023-11-18T02:16:59;2.50;;;1.10;;
42384;SDS011;28042;43.986;22.860;2023-11-18T02:19:27;0.60;;;0.60;;
42384;SDS011;28042;43.986;22.860;2023-11-18T02:21:55;0.60;;;0.60;;
42384;SDS011;28042;43.986;22.860;2023-11-18T02:24:40;0.83;;;0.80;;
42384;SDS011;28042;43.986;22.860;2023-11-18T02:27:06;0.68;;;0.60;;
42384;SDS011;28042;43.986;22.860;2023-11-18T02:29:36;2.40;;;0.85;;
42384;SDS011;28042;43.986;22.860;2023-11-18T02:37:53;1.48;;;0.75;;
42384;SDS011;28042;43.986;22.860;2023-11-18T02:40:22;0.60;;;0.60;;
42384;SDS011;28042;43.986;22.860;2023-11-18T02:42:59;0.68;;;0.63;;
42384;SDS011;28042;43.986;22.860;2023-11-18T02:45:26;1.95;;;0.93;;
42384;SDS011;28042;43.986;22.860;2023-11-18T02:47:52;0.60;;;0.60;;
42384;SDS011;28042;43.986;22.860;2023-11-18T02:50:25;0.73;;;0.60;;
42384;SDS011;28042;43.986;22.860;2023-11-18T02:52:52;1.15;;;0.65;;
42384;SDS011;28042;43.986;22.860;2023-11-18T02:55:20;0.95;;;0.60;;
42384;SDS011;28042;43.986;22.860;2023-11-18T02:57:47;0.68;;;0.50;;
42384;SDS011;28042;43.986;22.860;2023-11-18T03:00:14;0.70;;;0.67;;
42384;SDS011;28042;43.986;22.860;2023-11-18T03:02:47;0.60;;;0.60;;
42384;SDS011;28042;43.986;22.860;2023-11-18T03:05:13;1.37;;;0.60;;
42384;SDS011;28042;43.986;22.860;2023-11-18T03:07:43;0.93;;;0.70;;
42384;SDS011;28042;43.986;22.860;2023-11-18T03:10:15;0.73;;;0.60;;
42384;SDS011;28042;43.986;22.860;2023-11-18T03:12:49;0.90;;;0.70;;
42384;SDS011;28042;43.986;22.860;2023-11-18T03:15:16;0.60;;;0.60;;
42384;SDS011;28042;43.986;22.860;2023-11-18T03:17:48;0.63;;;0.63;;
42384;SDS011;28042;43.986;22.860;2023-11-18T03:20:18;0.73;;;0.73;;
42384;SDS011;28042;43.986;22.860;2023-11-18T03:22:47;1.58;;;0.98;;
42384;SDS011;28042;43.986;22.860;2023-11-18T03:25:15;0.65;;;0.55;;
42384;SDS011;28042;43.986;22.860;2023-11-18T03:27:41;1.45;;;0.60;;
42384;SDS011;28042;43.986;22.860;2023-11-18T03:30:07;1.75;;;0.65;;
42384;SDS011;28042;43.986;22.860;2023-11-18T03:32:37;0.90;;;0.80;;
42384;SDS011;28042;43.986;22.860;2023-11-18T03:35:05;0.68;;;0.50;;
42384;SDS011;28042;43.986;22.860;2023-11-18T03:37:33;0.55;;;0.52;;
42384;SDS011;28042;43.986;22.860;2023-11-18T03:40:10;0.50;;;0.40;;
42384;SDS011;28042;43.986;22.860;2023-11-18T03:42:36;0.75;;;0.68;;
42384;SDS011;28042;43.986;22.860;2023-11-18T03:45:03;0.70;;;0.60;;
42384;SDS011;28042;43.986;22.860;2023-11-18T03:47:29;1.45;;;0.60;;
42384;SDS011;28042;43.986;22.860;2023-11-18T03:49:56;0.95;;;0.75;;
42384;SDS011;28042;43.986;22.860;2023-11-18T03:52:22;0.80;;;0.60;;
42384;SDS011;28042;43.986;22.860;2023-11-18T03:54:47;1.15;;;0.90;;
42384;SDS011;28042;43.986;22.860;2023-11-18T03:57:13;0.75;;;0.75;;
42384;SDS011;28042;43.986;22.860;2023-11-18T03:59:39;0.80;;;0.80;;
42384;SDS011;28042;43.986;22.860;2023-11-18T04:02:05;1.05;;;0.77;;
42384;SDS011;28042;43.986;22.860;2023-11-18T04:04:31;1.30;;;0.82;;
42384;SDS011;28042;43.986;22.860;2023-11-18T04:06:57;1.05;;;0.70;;
42384;SDS011;28042;43.986;22.860;2023-11-18T04:09:22;1.13;;;0.70;;
42384;SDS011;28042;43.986;22.860;2023-11-18T04:11:48;0.95;;;0.80;;
42384;SDS011;28042;43.986;22.860;2023-11-18T04:14:14;1.52;;;0.90;;
42384;SDS011;28042;43.986;22.860;2023-11-18T04:16:39;1.90;;;0.80;;
42384;SDS011;28042;43.986;22.860;2023-11-18T04:19:05;1.88;;;0.80;;
42384;SDS011;28042;43.986;22.860;2023-11-18T04:21:31;2.55;;;1.20;;
42384;SDS011;28042;43.986;22.860;2023-11-18T04:23:56;1.67;;;0.90;;
42384;SDS011;28042;43.986;22.860;2023-11-18T04:26:22;2.38;;;1.00;;
42384;SDS011;28042;43.986;22.860;2023-11-18T04:28:47;1.83;;;1.00;;
42384;SDS011;28042;43.986;22.860;2023-11-18T04:31:13;2.80;;;1.30;;
42384;SDS011;28042;43.986;22.860;2023-11-18T04:33:39;3.10;;;1.52;;
42384;SDS011;28042;43.986;22.860;2023-11-18T04:36:05;3.22;;;1.67;;
42384;SDS011;28042;43.986;22.860;2023-11-18T04:38:34;3.22;;;1.63;;
42384;SDS011;28042;43.986;22.860;2023-11-18T04:41:01;3.10;;;1.20;;
42384;SDS011;28042;43.986;22.860;2023-11-18T04:43:28;8.65;;;1.70;;
42384;SDS011;28042;43.986;22.860;2023-11-18T04:45:55;1.15;;;0.90;;
42384;SDS011;28042;43.986;22.860;2023-11-18T04:48:21;1.73;;;0.65;;
42384;SDS011;28042;43.986;22.860;2023-11-18T04:50:46;1.08;;;0.70;;
42384;SDS011;28042;43.986;22.860;2023-11-18T04:53:12;1.13;;;0.90;;
42384;SDS011;28042;43.986;22.860;2023-11-18T04:55:38;1.38;;;0.90;;
42384;SDS011;28042;43.986;22.860;2023-11-18T04:58:03;1.00;;;0.60;;
42384;SDS011;28042;43.986;22.860;2023-11-18T05:00:31;1.45;;;0.80;;
42384;SDS011;28042;43.986;22.860;2023-11-18T05:02:59;1.20;;;0.82;;
42384;SDS011;28042;43.986;22.860;2023-11-18T05:05:24;2.25;;;0.70;;
42384;SDS011;28042;43.986;22.860;2023-11-18T05:07:50;1.90;;;1.25;;
42384;SDS011;28042;43.986;22.860;2023-11-18T05:10:15;1.33;;;0.90;;
42384;SDS011;28042;43.986;22.860;2023-11-18T05:12:41;1.45;;;1.08;;
42384;SDS011;28042;43.986;22.860;2023-11-18T05:15:09;1.85;;;1.08;;
42384;SDS011;28042;43.986;22.860;2023-11-18T05:17:35;2.08;;;0.85;;
42384;SDS011;28042;43.986;22.860;2023-11-18T05:20:01;5.53;;;1.30;;
42384;SDS011;28042;43.986;22.860;2023-11-18T05:22:33;1.20;;;0.82;;
42384;SDS011;28042;43.986;22.860;2023-11-18T05:24:58;1.63;;;1.42;;
42384;SDS011;28042;43.986;22.860;2023-11-18T05:27:23;6.70;;;2.50;;
42384;SDS011;28042;43.986;22.860;2023-11-18T05:29:49;3.60;;;1.58;;
42384;SDS011;28042;43.986;22.860;2023-11-18T05:32:22;2.10;;;1.00;;
42384;SDS011;28042;43.986;22.860;2023-11-18T05:34:48;1.23;;;1.00;;
42384;SDS011;28042;43.986;22.860;2023-11-18T05:37:18;1.13;;;0.82;;
42384;SDS011;28042;43.986;22.860;2023-11-18T05:39:44;1.92;;;0.70;;
42384;SDS011;28042;43.986;22.860;2023-11-18T05:42:10;1.75;;;1.05;;
42384;SDS011;28042;43.986;22.860;2023-11-18T05:44:37;4.00;;;2.03;;
42384;SDS011;28042;43.986;22.860;2023-11-18T05:47:04;1.58;;;1.00;;
42384;SDS011;28042;43.986;22.860;2023-11-18T05:49:32;2.30;;;1.27;;
42384;SDS011;28042;43.986;22.860;2023-11-18T05:51:58;1.45;;;1.08;;
42384;SDS011;28042;43.986;22.860;2023-11-18T05:54:23;4.60;;;1.80;;
42384;SDS011;28042;43.986;22.860;2023-11-18T05:56:49;3.05;;;1.50;;
42384;SDS011;28042;43.986;22.860;2023-11-18T05:59:15;0.73;;;0.70;;
42384;SDS011;28042;43.986;22.860;2023-11-18T06:01:40;0.77;;;0.70;;
42384;SDS011;28042;43.986;22.860;2023-11-18T06:04:06;1.85;;;1.30;;
42384;SDS011;28042;43.986;22.860;2023-11-18T06:06:33;1.25;;;0.90;;
42384;SDS011;28042;43.986;22.860;2023-11-18T06:08:59;1.85;;;1.10;;
42384;SDS011;28042;43.986;22.860;2023-11-18T06:11:29;0.95;;;0.75;;
42384;SDS011;28042;43.986;22.860;2023-11-18T06:13:57;3.70;;;1.05;;
42384;SDS011;28042;43.986;22.860;2023-11-18T06:16:23;3.08;;;1.00;;
42384;SDS011;28042;43.986;22.860;2023-11-18T06:18:50;0.60;;;0.60;;
42384;SDS011;28042;43.986;22.860;2023-11-18T06:21:18;1.10;;;0.80;;
42384;SDS011;28042;43.986;22.860;2023-11-18T06:23:45;2.83;;;1.45;;
42384;SDS011;28042;43.986;22.860;2023-11-18T06:26:12;0.80;;;0.50;;
42384;SDS011;28042;43.986;22.860;2023-11-18T06:28:38;1.30;;;0.93;;
42384;SDS011;28042;43.986;22.860;2023-11-18T06:31:05;0.70;;;0.70;;
42384;SDS011;28042;43.986;22.860;2023-11-18T06:33:36;0.73;;;0.70;;
42384;SDS011;28042;43.986;22.860;2023-11-18T06:36:02;4.13;;;1.00;;
42384;SDS011;28042;43.986;22.860;2023-11-18T06:38:29;1.50;;;1.00;;
42384;SDS011;28042;43.986;22.860;2023-11-18T06:40:55;0.70;;;0.70;;
42384;SDS011;28042;43.986;22.860;2023-11-18T06:43:24;2.22;;;1.40;;
42384;SDS011;28042;43.986;22.860;2023-11-18T06:45:50;0.60;;;0.60;;
42384;SDS011;28042;43.986;22.860;2023-11-18T06:48:16;1.20;;;0.80;;
42384;SDS011;28042;43.986;22.860;2023-11-18T06:50:45;0.98;;;0.55;;
42384;SDS011;28042;43.986;22.860;2023-11-18T06:53:11;0.75;;;0.60;;
42384;SDS011;28042;43.986;22.860;2023-11-18T06:55:37;0.95;;;0.90;;
42384;SDS011;28042;43.986;22.860;2023-11-18T06:58:02;1.30;;;1.00;;
42384;SDS011;28042;43.986;22.860;2023-11-18T07:00:28;0.90;;;0.60;;
42384;SDS011;28042;43.986;22.860;2023-11-18T07:02:54;0.50;;;0.50;;
42384;SDS011;28042;43.986;22.860;2023-11-18T07:05:20;1.98;;;1.10;;
42384;SDS011;28042;43.986;22.860;2023-11-18T07:07:49;1.40;;;0.90;;
42384;SDS011;28042;43.986;22.860;2023-11-18T07:10:15;0.80;;;0.80;;
42384;SDS011;28042;43.986;22.860;2023-11-18T07:12:45;0.80;;;0.75;;
42384;SDS011;28042;43.986;22.860;2023-11-18T07:15:13;1.17;;;0.93;;
42384;SDS011;28042;43.986;22.860;2023-11-18T07:17:39;0.50;;;0.50;;
42384;SDS011;28042;43.986;22.860;2023-11-18T07:20:05;5.28;;;1.17;;
42384;SDS011;28042;43.986;22.860;2023-11-18T07:22:31;1.77;;;0.63;;
42384;SDS011;28042;43.986;22.860;2023-11-18T07:24:57;0.70;;;0.70;;
42384;SDS011;28042;43.986;22.860;2023-11-18T07:27:22;2.33;;;1.35;;
42384;SDS011;28042;43.986;22.860;2023-11-18T07:29:48;0.88;;;0.63;;
42384;SDS011;28042;43.986;22.860;2023-11-18T07:32:13;1.55;;;1.00;;
42384;SDS011;28042;43.986;22.860;2023-11-18T07:34:39;0.70;;;0.70;;
42384;SDS011;28042;43.986;22.860;2023-11-18T07:37:06;1.17;;;1.02;;
42384;SDS011;28042;43.986;22.860;2023-11-18T07:39:33;2.42;;;1.20;;
42384;SDS011;28042;43.986;22.860;2023-11-18T07:42:13;3.92;;;1.60;;
42384;SDS011;28042;43.986;22.860;2023-11-18T07:44:40;5.68;;;1.30;;
42384;SDS011;28042;43.986;22.860;2023-11-18T07:47:05;2.17;;;1.30;;
42384;SDS011;28042;43.986;22.860;2023-11-18T07:49:34;2.47;;;0.95;;
42384;SDS011;28042;43.986;22.860;2023-11-18T07:52:01;4.95;;;1.10;;
42384;SDS011;28042;43.986;22.860;2023-11-18T07:54:27;2.33;;;0.73;;
42384;SDS011;28042;43.986;22.860;2023-11-18T07:56:52;0.40;;;0.40;;
42384;SDS011;28042;43.986;22.860;2023-11-18T07:59:19;2.83;;;1.25;;
42384;SDS011;28042;43.986;22.860;2023-11-18T08:01:45;1.25;;;0.82;;
42384;SDS011;28042;43.986;22.860;2023-11-18T08:04:11;0.40;;;0.40;;
42384;SDS011;28042;43.986;22.860;2023-11-18T08:06:39;2.72;;;0.77;;
42384;SDS011;28042;43.986;22.860;2023-11-18T08:09:05;0.82;;;0.57;;
42384;SDS011;28042;43.986;22.860;2023-11-18T08:11:36;0.60;;;0.60;;
42384;SDS011;28042;43.986;22.860;2023-11-18T08:14:01;5.20;;;0.65;;
42384;SDS011;28042;43.986;22.860;2023-11-18T08:16:27;3.53;;;0.70;;
42384;SDS011;28042;43.986;22.860;2023-11-18T08:18:54;4.53;;;2.47;;
42384;SDS011;28042;43.986;22.860;2023-11-18T08:21:20;2.55;;;0.85;;
42384;SDS011;28042;43.986;22.860;2023-11-18T08:23:47;2.30;;;1.05;;
42384;SDS011;28042;43.986;22.860;2023-11-18T08:26:13;1.33;;;0.70;;
42384;SDS011;28042;43.986;22.860;2023-11-18T08:28:39;1.77;;;0.95;;
42384;SDS011;28042;43.986;22.860;2023-11-18T08:31:05;0.77;;;0.50;;
42384;SDS011;28042;43.986;22.860;2023-11-18T08:33:32;2.22;;;1.10;;
42384;SDS011;28042;43.986;22.860;2023-11-18T08:35:59;0.88;;;0.85;;
42384;SDS011;28042;43.986;22.860;2023-11-18T08:38:26;0.57;;;0.57;;
42384;SDS011;28042;43.986;22.860;2023-11-18T08:40:53;2.70;;;1.02;;
42384;SDS011;28042;43.986;22.860;2023-11-18T08:43:20;0.60;;;0.60;;
42384;SDS011;28042;43.986;22.860;2023-11-18T08:45:46;1.38;;;0.80;;
42384;SDS011;28042;43.986;22.860;2023-11-18T08:48:12;2.90;;;1.42;;
42384;SDS011;28042;43.986;22.860;2023-11-18T08:50:38;1.10;;;1.00;;
42384;SDS011;28042;43.986;22.860;2023-11-18T08:53:08;1.55;;;0.80;;
42384;SDS011;28042;43.986;22.860;2023-11-18T08:55:34;3.50;;;0.98;;
42384;SDS011;28042;43.986;22.860;2023-11-18T08:58:15;1.30;;;1.17;;
42384;SDS011;28042;43.986;22.860;2023-11-18T09:00:51;2.08;;;1.15;;
42384;SDS011;28042;43.986;22.860;2023-11-18T09:03:25;2.45;;;0.75;;
42384;SDS011;28042;43.986;22.860;2023-11-18T09:05:59;3.40;;;1.00;;
42384;SDS011;28042;43.986;22.860;2023-11-18T09:08:36;2.38;;;1.23;;
42384;SDS011;28042;43.986;22.860;2023-11-18T09:11:08;1.08;;;0.98;;
42384;SDS011;28042;43.986;22.860;2023-11-18T09:13:45;1.85;;;0.90;;
42384;SDS011;28042;43.986;22.860;2023-11-18T09:16:16;1.88;;;1.00;;
42384;SDS011;28042;43.986;22.860;2023-11-18T09:18:43;2.05;;;1.30;;
42384;SDS011;28042;43.986;22.860;2023-11-18T09:21:11;1.23;;;1.08;;
42384;SDS011;28042;43.986;22.860;2023-11-18T09:23:44;4.63;;;1.20;;
42384;SDS011;28042;43.986;22.860;2023-11-18T09:26:10;1.75;;;1.20;;
42384;SDS011;28042;43.986;22.860;2023-11-18T09:28:36;3.55;;;1.40;;
42384;SDS011;28042;43.986;22.860;2023-11-18T09:31:02;1.10;;;1.00;;
42384;SDS011;28042;43.986;22.860;2023-11-18T09:33:29;1.27;;;1.08;;
42384;SDS011;28042;43.986;22.860;2023-11-18T09:38:28;2.13;;;1.20;;
42384;SDS011;28042;43.986;22.860;2023-11-18T09:40:54;3.10;;;1.40;;
42384;SDS011;28042;43.986;22.860;2023-11-18T09:43:21;2.13;;;1.33;;
42384;SDS011;28042;43.986;22.860;2023-11-18T09:45:56;1.88;;;1.23;;
42384;SDS011;28042;43.986;22.860;2023-11-18T09:48:26;2.08;;;1.15;;
42384;SDS011;28042;43.986;22.860;2023-11-18T09:50:52;0.98;;;0.80;;
42384;SDS011;28042;43.986;22.860;2023-11-18T09:53:18;2.13;;;1.08;;
42384;SDS011;28042;43.986;22.860;2023-11-18T09:56:06;1.48;;;1.27;;
42384;SDS011;28042;43.986;22.860;2023-11-18T09:58:40;1.05;;;0.80;;
42384;SDS011;28042;43.986;22.860;2023-11-18T10:01:09;1.65;;;1.17;;
42384;SDS011;28042;43.986;22.860;2023-11-18T10:03:39;2.22;;;1.33;;
42384;SDS011;28042;43.986;22.860;2023-11-18T10:06:08;3.85;;;1.10;;
42384;SDS011;28042;43.986;22.860;2023-11-18T10:08:34;3.58;;;1.40;;
42384;SDS011;28042;43.986;22.860;2023-11-18T10:11:03;1.35;;;0.90;;
42384;SDS011;28042;43.986;22.860;2023-11-18T10:13:35;1.25;;;1.05;;
42384;SDS011;28042;43.986;22.860;2023-11-18T10:16:20;2.45;;;1.40;;
42384;SDS011;28042;43.986;22.860;2023-11-18T10:18:48;2.33;;;1.50;;
42384;SDS011;28042;43.986;22.860;2023-11-18T10:21:16;2.78;;;1.70;;
42384;SDS011;28042;43.986;22.860;2023-11-18T10:24:01;1.42;;;1.17;;
42384;SDS011;28042;43.986;22.860;2023-11-18T10:26:27;2.13;;;1.20;;
42384;SDS011;28042;43.986;22.860;2023-11-18T10:28:53;3.25;;;1.38;;
42384;SDS011;28042;43.986;22.860;2023-11-18T10:31:20;2.42;;;1.20;;
42384;SDS011;28042;43.986;22.860;2023-11-18T10:33:45;1.08;;;0.98;;
42384;SDS011;28042;43.986;22.860;2023-11-18T10:36:19;2.55;;;1.40;;
42384;SDS011;28042;43.986;22.860;2023-11-18T10:38:50;4.43;;;1.50;;
42384;SDS011;28042;43.986;22.860;2023-11-18T10:41:19;1.48;;;1.20;;
42384;SDS011;28042;43.986;22.860;2023-11-18T10:43:45;1.70;;;1.10;;
42384;SDS011;28042;43.986;22.860;2023-11-18T10:46:13;2.95;;;1.80;;
42384;SDS011;28042;43.986;22.860;2023-11-18T10:48:43;4.20;;;1.23;;
42384;SDS011;28042;43.986;22.860;2023-11-18T10:51:12;2.53;;;1.40;;
42384;SDS011;28042;43.986;22.860;2023-11-18T10:53:41;2.50;;;1.30;;
42384;SDS011;28042;43.986;22.860;2023-11-18T10:56:18;2.90;;;1.23;;
42384;SDS011;28042;43.986;22.860;2023-11-18T10:59:06;2.47;;;1.50;;
42384;SDS011;28042;43.986;22.860;2023-11-18T11:01:33;1.45;;;1.25;;
42384;SDS011;28042;43.986;22.860;2023-11-18T11:04:04;2.28;;;1.50;;
42384;SDS011;28042;43.986;22.860;2023-11-18T11:06:31;3.40;;;1.40;;
42384;SDS011;28042;43.986;22.860;2023-11-18T11:08:57;2.80;;;1.55;;
42384;SDS011;28042;43.986;22.860;2023-11-18T11:11:36;2.70;;;1.30;;
42384;SDS011;28042;43.986;22.860;2023-11-18T11:14:05;6.10;;;2.17;;
42384;SDS011;28042;43.986;22.860;2023-11-18T11:16:40;1.83;;;1.33;;
42384;SDS011;28042;43.986;22.860;2023-11-18T11:19:13;5.88;;;1.40;;
42384;SDS011;28042;43.986;22.860;2023-11-18T11:21:53;3.20;;;1.40;;
42384;SDS011;28042;43.986;22.860;2023-11-18T11:24:28;2.42;;;1.33;;
42384;SDS011;28042;43.986;22.860;2023-11-18T11:35:48;2.00;;;1.27;;
42384;SDS011;28042;43.986;22.860;2023-11-18T11:38:22;2.38;;;1.38;;
42384;SDS011;28042;43.986;22.860;2023-11-18T11:40:49;1.45;;;1.13;;
42384;SDS011;28042;43.986;22.860;2023-11-18T11:43:17;2.75;;;1.70;;
42384;SDS011;28042;43.986;22.860;2023-11-18T11:45:50;1.85;;;1.30;;
42384;SDS011;28042;43.986;22.860;2023-11-18T11:48:20;1.65;;;1.00;;
42384;SDS011;28042;43.986;22.860;2023-11-18T11:56:55;1.80;;;1.40;;
42384;SDS011;28042;43.986;22.860;2023-11-18T12:02:18;3.22;;;1.88;;
42384;SDS011;28042;43.986;22.860;2023-11-18T12:04:49;2.45;;;1.08;;
42384;SDS011;28042;43.986;22.860;2023-11-18T12:07:19;2.45;;;1.70;;
42384;SDS011;28042;43.986;22.860;2023-11-18T12:09:48;2.50;;;1.77;;
42384;SDS011;28042;43.986;22.860;2023-11-18T12:12:22;2.25;;;1.70;;
42384;SDS011;28042;43.986;22.860;2023-11-18T12:23:12;2.85;;;1.52;;
42384;SDS011;28042;43.986;22.860;2023-11-18T12:25:43;2.25;;;1.70;;
42384;SDS011;28042;43.986;22.860;2023-11-18T12:28:19;2.55;;;1.77;;
42384;SDS011;28042;43.986;22.860;2023-11-18T12:30:52;5.82;;;2.00;;
42384;SDS011;28042;43.986;22.860;2023-11-18T12:33:22;3.08;;;1.85;;
42384;SDS011;28042;43.986;22.860;2023-11-18T12:41:03;3.40;;;1.63;;
42384;SDS011;28042;43.986;22.860;2023-11-18T12:49:07;2.90;;;1.70;;
42384;SDS011;28042;43.986;22.860;2023-11-18T12:51:40;2.50;;;1.85;;
42384;SDS011;28042;43.986;22.860;2023-11-18T12:54:08;1.70;;;1.30;;
42384;SDS011;28042;43.986;22.860;2023-11-18T12:56:37;1.95;;;1.40;;
42384;SDS011;28042;43.986;22.860;2023-11-18T12:59:03;1.63;;;1.30;;
42384;SDS011;28042;43.986;22.860;2023-11-18T13:01:32;2.80;;;1.63;;
42384;SDS011;28042;43.986;22.860;2023-11-18T13:04:01;2.03;;;1.35;;
42384;SDS011;28042;43.986;22.860;2023-11-18T13:06:27;2.78;;;1.20;;
42384;SDS011;28042;43.986;22.860;2023-11-18T13:08:53;2.10;;;1.50;;
42384;SDS011;28042;43.986;22.860;2023-11-18T13:11:21;1.90;;;1.30;;
42384;SDS011;28042;43.986;22.860;2023-11-18T13:13:49;1.80;;;1.48;;
42384;SDS011;28042;43.986;22.860;2023-11-18T13:16:16;2.92;;;1.98;;
42384;SDS011;28042;43.986;22.860;2023-11-18T13:18:43;3.05;;;1.60;;
42384;SDS011;28042;43.986;22.860;2023-11-18T13:21:14;1.50;;;1.40;;
42384;SDS011;28042;43.986;22.860;2023-11-18T13:23:47;4.55;;;1.70;;
42384;SDS011;28042;43.986;22.860;2023-11-18T13:26:15;2.03;;;1.42;;
42384;SDS011;28042;43.986;22.860;2023-11-18T13:28:41;3.00;;;1.92;;
42384;SDS011;28042;43.986;22.860;2023-11-18T13:31:09;2.45;;;1.58;;
42384;SDS011;28042;43.986;22.860;2023-11-18T13:33:38;2.95;;;1.67;;
42384;SDS011;28042;43.986;22.860;2023-11-18T13:36:05;2.67;;;1.77;;
42384;SDS011;28042;43.986;22.860;2023-11-18T13:38:31;3.15;;;2.00;;
42384;SDS011;28042;43.986;22.860;2023-11-18T13:40:57;4.22;;;2.38;;
42384;SDS011;28042;43.986;22.860;2023-11-18T13:43:23;4.68;;;1.90;;
42384;SDS011;28042;43.986;22.860;2023-11-18T13:45:52;2.28;;;1.55;;
42384;SDS011;28042;43.986;22.860;2023-11-18T13:48:24;1.80;;;1.30;;
42384;SDS011;28042;43.986;22.860;2023-11-18T13:50:50;5.22;;;2.58;;
42384;SDS011;28042;43.986;22.860;2023-11-18T13:53:16;3.67;;;2.28;;
42384;SDS011;28042;43.986;22.860;2023-11-18T13:55:41;3.55;;;1.20;;
42384;SDS011;28042;43.986;22.860;2023-11-18T13:58:08;3.67;;;1.53;;
42384;SDS011;28042;43.986;22.860;2023-11-18T14:00:35;3.85;;;2.28;;
42384;SDS011;28042;43.986;22.860;2023-11-18T14:03:01;4.65;;;1.92;;
42384;SDS011;28042;43.986;22.860;2023-11-18T14:05:27;3.80;;;2.55;;
42384;SDS011;28042;43.986;22.860;2023-11-18T14:07:53;2.90;;;1.60;;
42384;SDS011;28042;43.986;22.860;2023-11-18T14:10:24;4.70;;;2.95;;
42384;SDS011;28042;43.986;22.860;2023-11-18T14:13:03;9.45;;;5.30;;
42384;SDS011;28042;43.986;22.860;2023-11-18T14:15:37;4.20;;;2.55;;
42384;SDS011;28042;43.986;22.860;2023-11-18T14:18:03;5.90;;;3.03;;
42384;SDS011;28042;43.986;22.860;2023-11-18T14:20:29;17.83;;;3.03;;
42384;SDS011;28042;43.986;22.860;2023-11-18T14:22:56;3.17;;;1.65;;
42384;SDS011;28042;43.986;22.860;2023-11-18T14:25:26;4.85;;;2.20;;
42384;SDS011;28042;43.986;22.860;2023-11-18T14:27:52;4.45;;;1.88;;
42384;SDS011;28042;43.986;22.860;2023-11-18T14:30:18;1.75;;;1.48;;
42384;SDS011;28042;43.986;22.860;2023-11-18T14:32:44;3.47;;;2.10;;
42384;SDS011;28042;43.986;22.860;2023-11-18T14:35:11;2.40;;;1.45;;
42384;SDS011;28042;43.986;22.860;2023-11-18T14:37:42;6.72;;;1.40;;
42384;SDS011;28042;43.986;22.860;2023-11-18T14:40:13;1.98;;;1.33;;
42384;SDS011;28042;43.986;22.860;2023-11-18T14:42:43;2.22;;;1.60;;
42384;SDS011;28042;43.986;22.860;2023-11-18T14:45:10;1.67;;;1.08;;
42384;SDS011;28042;43.986;22.860;2023-11-18T14:47:39;7.82;;;2.05;;
42384;SDS011;28042;43.986;22.860;2023-11-18T14:50:05;2.28;;;1.42;;
42384;SDS011;28042;43.986;22.860;2023-11-18T14:52:40;2.25;;;1.70;;
42384;SDS011;28042;43.986;22.860;2023-11-18T14:55:06;2.88;;;1.85;;
42384;SDS011;28042;43.986;22.860;2023-11-18T14:57:37;2.08;;;1.60;;
42384;SDS011;28042;43.986;22.860;2023-11-18T15:00:06;4.03;;;2.22;;
42384;SDS011;28042;43.986;22.860;2023-11-18T15:05:09;1.80;;;1.50;;
42384;SDS011;28042;43.986;22.860;2023-11-18T15:07:34;4.32;;;2.33;;
42384;SDS011;28042;43.986;22.860;2023-11-18T15:10:00;5.25;;;1.48;;
42384;SDS011;28042;43.986;22.860;2023-11-18T15:12:25;3.70;;;2.35;;
42384;SDS011;28042;43.986;22.860;2023-11-18T15:14:51;3.72;;;2.38;;
42384;SDS011;28042;43.986;22.860;2023-11-18T15:17:16;4.82;;;2.60;;
42384;SDS011;28042;43.986;22.860;2023-11-18T15:19:42;6.78;;;2.50;;
42384;SDS011;28042;43.986;22.860;2023-11-18T15:22:07;7.13;;;2.35;;
42384;SDS011;28042;43.986;22.860;2023-11-18T15:24:33;4.28;;;2.25;;
42384;SDS011;28042;43.986;22.860;2023-11-18T15:26:58;3.35;;;1.83;;